sensor_id;sensor_type;location;lat;lon;timestamp;P1;durP1;ratioP1;P2;durP2;ratioP2
21352;SDS011;10834;52.268;6.770;2023-09-19T00:02:08;6.57;;;1.83;;
21352;SDS011;10834;52.268;6.770;2023-09-19T00:04:52;6.33;;;2.17;;
21352;SDS011;10834;52.268;6.770;2023-09-19T00:07:37;4.43;;;1.57;;
21352;SDS011;10834;52.268;6.770;2023-09-19T00:10:21;6.47;;;2.17;;
21352;SDS011;10834;52.268;6.770;2023-09-19T00:13:08;9.23;;;2.10;;
21352;SDS011;10834;52.268;6.770;2023-09-19T00:15:56;9.93;;;2.00;;
21352;SDS011;10834;52.268;6.770;2023-09-19T00:18:42;6.63;;;1.90;;
21352;SDS011;10834;52.268;6.770;2023-09-19T00:21:27;8.93;;;2.37;;
21352;SDS011;10834;52.268;6.770;2023-09-19T00:24:12;6.60;;;1.90;;
21352;SDS011;10834;52.268;6.770;2023-09-19T00:26:57;4.87;;;1.50;;
21352;SDS011;10834;52.268;6.770;2023-09-19T00:29:43;3.83;;;2.17;;
21352;SDS011;10834;52.268;6.770;2023-09-19T00:32:27;3.43;;;1.53;;
21352;SDS011;10834;52.268;6.770;2023-09-19T00:35:15;6.77;;;3.17;;
21352;SDS011;10834;52.268;6.770;2023-09-19T00:38:00;11.37;;;2.17;;
21352;SDS011;10834;52.268;6.770;2023-09-19T00:40:45;10.67;;;3.73;;
21352;SDS011;10834;52.268;6.770;2023-09-19T00:43:30;6.37;;;2.10;;
21352;SDS011;10834;52.268;6.770;2023-09-19T00:46:18;8.63;;;2.73;;
21352;SDS011;10834;52.268;6.770;2023-09-19T00:49:02;8.93;;;2.87;;
21352;SDS011;10834;52.268;6.770;2023-09-19T00:51:46;4.63;;;2.40;;
21352;SDS011;10834;52.268;6.770;2023-09-19T00:54:31;4.40;;;1.73;;
21352;SDS011;10834;52.268;6.770;2023-09-19T00:57:17;6.47;;;2.10;;
21352;SDS011;10834;52.268;6.770;2023-09-19T01:00:06;5.53;;;2.10;;
21352;SDS011;10834;52.268;6.770;2023-09-19T01:02:52;7.83;;;2.67;;
21352;SDS011;10834;52.268;6.770;2023-09-19T01:05:37;4.43;;;1.90;;
21352;SDS011;10834;52.268;6.770;2023-09-19T01:08:21;5.80;;;1.73;;
21352;SDS011;10834;52.268;6.770;2023-09-19T01:11:13;2.93;;;1.80;;
21352;SDS011;10834;52.268;6.770;2023-09-19T01:17:32;6.07;;;2.30;;
21352;SDS011;10834;52.268;6.770;2023-09-19T01:20:43;6.97;;;1.70;;
21352;SDS011;10834;52.268;6.770;2023-09-19T01:30:08;6.40;;;1.77;;
21352;SDS011;10834;52.268;6.770;2023-09-19T01:32:58;4.77;;;1.30;;
21352;SDS011;10834;52.268;6.770;2023-09-19T01:35:43;6.03;;;1.67;;
21352;SDS011;10834;52.268;6.770;2023-09-19T01:38:27;8.00;;;1.87;;
21352;SDS011;10834;52.268;6.770;2023-09-19T01:41:12;4.50;;;1.60;;
21352;SDS011;10834;52.268;6.770;2023-09-19T01:44:06;6.93;;;2.50;;
21352;SDS011;10834;52.268;6.770;2023-09-19T01:46:55;8.27;;;2.37;;
21352;SDS011;10834;52.268;6.770;2023-09-19T01:49:50;9.93;;;2.43;;
21352;SDS011;10834;52.268;6.770;2023-09-19T01:52:49;10.63;;;2.53;;
21352;SDS011;10834;52.268;6.770;2023-09-19T01:55:41;10.30;;;2.63;;
21352;SDS011;10834;52.268;6.770;2023-09-19T01:58:34;12.07;;;2.60;;
21352;SDS011;10834;52.268;6.770;2023-09-19T02:01:29;6.90;;;2.77;;
21352;SDS011;10834;52.268;6.770;2023-09-19T02:04:14;8.07;;;2.33;;
21352;SDS011;10834;52.268;6.770;2023-09-19T02:06:59;9.27;;;2.87;;
21352;SDS011;10834;52.268;6.770;2023-09-19T02:09:44;9.83;;;3.00;;
21352;SDS011;10834;52.268;6.770;2023-09-19T02:12:29;9.43;;;2.67;;
21352;SDS011;10834;52.268;6.770;2023-09-19T02:15:14;8.03;;;2.70;;
21352;SDS011;10834;52.268;6.770;2023-09-19T02:17:59;5.87;;;2.30;;
21352;SDS011;10834;52.268;6.770;2023-09-19T02:20:43;5.93;;;2.43;;
21352;SDS011;10834;52.268;6.770;2023-09-19T02:23:27;6.07;;;2.63;;
21352;SDS011;10834;52.268;6.770;2023-09-19T02:26:13;7.50;;;2.53;;
21352;SDS011;10834;52.268;6.770;2023-09-19T02:28:58;6.60;;;2.87;;
21352;SDS011;10834;52.268;6.770;2023-09-19T02:31:43;11.97;;;2.40;;
21352;SDS011;10834;52.268;6.770;2023-09-19T02:34:28;7.17;;;3.00;;
21352;SDS011;10834;52.268;6.770;2023-09-19T02:37:12;4.93;;;3.03;;
21352;SDS011;10834;52.268;6.770;2023-09-19T02:39:57;13.10;;;3.30;;
21352;SDS011;10834;52.268;6.770;2023-09-19T02:42:42;9.40;;;2.83;;
21352;SDS011;10834;52.268;6.770;2023-09-19T02:45:30;6.27;;;2.90;;
21352;SDS011;10834;52.268;6.770;2023-09-19T02:48:16;5.67;;;2.57;;
21352;SDS011;10834;52.268;6.770;2023-09-19T02:51:00;10.80;;;3.20;;
21352;SDS011;10834;52.268;6.770;2023-09-19T02:53:45;9.73;;;2.80;;
21352;SDS011;10834;52.268;6.770;2023-09-19T02:56:31;16.93;;;3.87;;
21352;SDS011;10834;52.268;6.770;2023-09-19T02:59:16;9.47;;;2.63;;
21352;SDS011;10834;52.268;6.770;2023-09-19T03:02:00;13.67;;;3.27;;
21352;SDS011;10834;52.268;6.770;2023-09-19T03:04:46;10.77;;;3.50;;
21352;SDS011;10834;52.268;6.770;2023-09-19T03:07:32;12.27;;;3.30;;
21352;SDS011;10834;52.268;6.770;2023-09-19T03:10:19;10.53;;;3.40;;
21352;SDS011;10834;52.268;6.770;2023-09-19T03:13:04;20.63;;;4.73;;
21352;SDS011;10834;52.268;6.770;2023-09-19T03:15:49;10.20;;;2.90;;
21352;SDS011;10834;52.268;6.770;2023-09-19T03:18:34;10.87;;;3.33;;
21352;SDS011;10834;52.268;6.770;2023-09-19T03:21:18;6.63;;;2.83;;
21352;SDS011;10834;52.268;6.770;2023-09-19T03:24:03;13.07;;;2.80;;
21352;SDS011;10834;52.268;6.770;2023-09-19T03:26:48;10.70;;;3.07;;
21352;SDS011;10834;52.268;6.770;2023-09-19T03:29:32;12.20;;;2.73;;
21352;SDS011;10834;52.268;6.770;2023-09-19T03:32:17;16.07;;;3.50;;
21352;SDS011;10834;52.268;6.770;2023-09-19T03:35:02;7.67;;;2.40;;
21352;SDS011;10834;52.268;6.770;2023-09-19T03:37:50;11.60;;;3.67;;
21352;SDS011;10834;52.268;6.770;2023-09-19T03:40:36;7.37;;;2.20;;
21352;SDS011;10834;52.268;6.770;2023-09-19T03:43:21;12.73;;;2.83;;
21352;SDS011;10834;52.268;6.770;2023-09-19T03:46:05;5.53;;;2.33;;
21352;SDS011;10834;52.268;6.770;2023-09-19T03:48:51;9.33;;;2.67;;
21352;SDS011;10834;52.268;6.770;2023-09-19T03:51:35;11.70;;;2.70;;
21352;SDS011;10834;52.268;6.770;2023-09-19T03:54:21;10.90;;;2.30;;
21352;SDS011;10834;52.268;6.770;2023-09-19T03:57:05;11.37;;;3.20;;
21352;SDS011;10834;52.268;6.770;2023-09-19T03:59:50;11.47;;;2.57;;
21352;SDS011;10834;52.268;6.770;2023-09-19T04:02:37;6.63;;;2.70;;
21352;SDS011;10834;52.268;6.770;2023-09-19T04:05:23;8.27;;;2.37;;
21352;SDS011;10834;52.268;6.770;2023-09-19T04:08:07;7.30;;;2.30;;
21352;SDS011;10834;52.268;6.770;2023-09-19T04:10:52;11.27;;;1.93;;
21352;SDS011;10834;52.268;6.770;2023-09-19T04:13:36;12.93;;;2.63;;
21352;SDS011;10834;52.268;6.770;2023-09-19T04:16:21;17.53;;;3.27;;
21352;SDS011;10834;52.268;6.770;2023-09-19T04:19:05;12.30;;;2.87;;
21352;SDS011;10834;52.268;6.770;2023-09-19T04:21:49;11.20;;;2.50;;
21352;SDS011;10834;52.268;6.770;2023-09-19T04:24:33;7.80;;;1.93;;
21352;SDS011;10834;52.268;6.770;2023-09-19T04:27:18;8.83;;;2.30;;
21352;SDS011;10834;52.268;6.770;2023-09-19T04:30:03;10.40;;;2.43;;
21352;SDS011;10834;52.268;6.770;2023-09-19T04:32:53;9.90;;;2.73;;
21352;SDS011;10834;52.268;6.770;2023-09-19T04:35:37;10.33;;;2.37;;
21352;SDS011;10834;52.268;6.770;2023-09-19T04:38:22;12.27;;;2.80;;
21352;SDS011;10834;52.268;6.770;2023-09-19T04:41:07;14.87;;;2.97;;
21352;SDS011;10834;52.268;6.770;2023-09-19T04:43:51;11.03;;;2.40;;
21352;SDS011;10834;52.268;6.770;2023-09-19T04:46:35;15.87;;;3.23;;
21352;SDS011;10834;52.268;6.770;2023-09-19T04:49:20;12.10;;;2.80;;
21352;SDS011;10834;52.268;6.770;2023-09-19T04:52:04;7.93;;;2.23;;
21352;SDS011;10834;52.268;6.770;2023-09-19T04:54:49;10.20;;;2.70;;
21352;SDS011;10834;52.268;6.770;2023-09-19T04:57:33;14.03;;;2.90;;
21352;SDS011;10834;52.268;6.770;2023-09-19T05:00:18;11.53;;;3.83;;
21352;SDS011;10834;52.268;6.770;2023-09-19T05:03:08;9.57;;;2.23;;
21352;SDS011;10834;52.268;6.770;2023-09-19T05:05:53;10.03;;;2.70;;
21352;SDS011;10834;52.268;6.770;2023-09-19T05:08:37;7.47;;;2.10;;
21352;SDS011;10834;52.268;6.770;2023-09-19T05:11:22;7.60;;;2.17;;
21352;SDS011;10834;52.268;6.770;2023-09-19T05:14:06;11.87;;;2.77;;
21352;SDS011;10834;52.268;6.770;2023-09-19T05:16:50;9.37;;;1.93;;
21352;SDS011;10834;52.268;6.770;2023-09-19T05:19:35;4.80;;;1.80;;
21352;SDS011;10834;52.268;6.770;2023-09-19T05:22:20;10.60;;;2.73;;
21352;SDS011;10834;52.268;6.770;2023-09-19T05:25:04;9.07;;;2.77;;
21352;SDS011;10834;52.268;6.770;2023-09-19T05:27:49;11.23;;;1.93;;
21352;SDS011;10834;52.268;6.770;2023-09-19T05:30:37;5.33;;;2.00;;
21352;SDS011;10834;52.268;6.770;2023-09-19T05:33:22;8.60;;;2.20;;
21352;SDS011;10834;52.268;6.770;2023-09-19T05:36:06;9.93;;;2.40;;
21352;SDS011;10834;52.268;6.770;2023-09-19T05:38:53;10.60;;;2.03;;
21352;SDS011;10834;52.268;6.770;2023-09-19T05:41:37;9.17;;;2.37;;
21352;SDS011;10834;52.268;6.770;2023-09-19T05:44:23;8.80;;;2.40;;
21352;SDS011;10834;52.268;6.770;2023-09-19T05:47:08;11.03;;;2.63;;
21352;SDS011;10834;52.268;6.770;2023-09-19T05:49:52;7.00;;;2.10;;
21352;SDS011;10834;52.268;6.770;2023-09-19T05:52:38;9.97;;;1.87;;
21352;SDS011;10834;52.268;6.770;2023-09-19T05:55:22;7.63;;;1.87;;
21352;SDS011;10834;52.268;6.770;2023-09-19T05:58:09;8.13;;;2.70;;
21352;SDS011;10834;52.268;6.770;2023-09-19T06:00:54;12.50;;;2.13;;
21352;SDS011;10834;52.268;6.770;2023-09-19T06:03:38;9.90;;;2.27;;
21352;SDS011;10834;52.268;6.770;2023-09-19T06:06:22;9.20;;;2.43;;
21352;SDS011;10834;52.268;6.770;2023-09-19T06:09:08;10.07;;;2.17;;
21352;SDS011;10834;52.268;6.770;2023-09-19T06:11:52;9.10;;;2.20;;
21352;SDS011;10834;52.268;6.770;2023-09-19T06:14:36;5.83;;;2.40;;
21352;SDS011;10834;52.268;6.770;2023-09-19T06:17:20;8.30;;;2.23;;
21352;SDS011;10834;52.268;6.770;2023-09-19T06:20:06;8.60;;;1.80;;
21352;SDS011;10834;52.268;6.770;2023-09-19T06:22:57;5.47;;;1.80;;
21352;SDS011;10834;52.268;6.770;2023-09-19T06:25:41;11.37;;;2.17;;
21352;SDS011;10834;52.268;6.770;2023-09-19T06:28:27;8.03;;;2.03;;
21352;SDS011;10834;52.268;6.770;2023-09-19T06:31:11;7.70;;;1.93;;
21352;SDS011;10834;52.268;6.770;2023-09-19T06:33:56;7.37;;;2.27;;
21352;SDS011;10834;52.268;6.770;2023-09-19T06:36:40;6.57;;;1.60;;
21352;SDS011;10834;52.268;6.770;2023-09-19T06:39:24;5.70;;;2.00;;
21352;SDS011;10834;52.268;6.770;2023-09-19T06:42:09;9.47;;;1.67;;
21352;SDS011;10834;52.268;6.770;2023-09-19T06:44:54;8.90;;;2.33;;
21352;SDS011;10834;52.268;6.770;2023-09-19T06:47:40;8.77;;;2.20;;
21352;SDS011;10834;52.268;6.770;2023-09-19T06:50:24;9.80;;;1.93;;
21352;SDS011;10834;52.268;6.770;2023-09-19T06:53:09;10.07;;;3.00;;
21352;SDS011;10834;52.268;6.770;2023-09-19T06:55:53;6.60;;;2.40;;
21352;SDS011;10834;52.268;6.770;2023-09-19T06:58:37;12.57;;;2.93;;
21352;SDS011;10834;52.268;6.770;2023-09-19T07:01:22;8.30;;;2.00;;
21352;SDS011;10834;52.268;6.770;2023-09-19T07:04:06;10.73;;;2.40;;
21352;SDS011;10834;52.268;6.770;2023-09-19T07:06:50;6.70;;;2.00;;
21352;SDS011;10834;52.268;6.770;2023-09-19T07:09:35;9.67;;;2.10;;
21352;SDS011;10834;52.268;6.770;2023-09-19T07:12:19;3.97;;;1.80;;
21352;SDS011;10834;52.268;6.770;2023-09-19T07:15:03;10.53;;;2.87;;
21352;SDS011;10834;52.268;6.770;2023-09-19T07:17:49;9.83;;;2.17;;
21352;SDS011;10834;52.268;6.770;2023-09-19T07:20:34;9.10;;;2.27;;
21352;SDS011;10834;52.268;6.770;2023-09-19T07:23:18;4.73;;;1.87;;
21352;SDS011;10834;52.268;6.770;2023-09-19T07:26:04;5.60;;;1.93;;
21352;SDS011;10834;52.268;6.770;2023-09-19T07:28:49;7.73;;;2.40;;
21352;SDS011;10834;52.268;6.770;2023-09-19T07:31:33;15.07;;;2.70;;
21352;SDS011;10834;52.268;6.770;2023-09-19T07:34:18;7.43;;;2.10;;
21352;SDS011;10834;52.268;6.770;2023-09-19T07:37:03;10.57;;;3.20;;
21352;SDS011;10834;52.268;6.770;2023-09-19T07:39:47;9.83;;;2.53;;
21352;SDS011;10834;52.268;6.770;2023-09-19T07:42:31;9.30;;;2.40;;
21352;SDS011;10834;52.268;6.770;2023-09-19T07:45:16;6.13;;;1.70;;
21352;SDS011;10834;52.268;6.770;2023-09-19T07:48:00;11.90;;;2.03;;
21352;SDS011;10834;52.268;6.770;2023-09-19T07:50:47;9.90;;;2.60;;
21352;SDS011;10834;52.268;6.770;2023-09-19T07:53:33;9.03;;;2.73;;
21352;SDS011;10834;52.268;6.770;2023-09-19T07:56:21;11.87;;;2.10;;
21352;SDS011;10834;52.268;6.770;2023-09-19T07:59:06;6.30;;;1.70;;
21352;SDS011;10834;52.268;6.770;2023-09-19T08:01:50;7.03;;;1.90;;
21352;SDS011;10834;52.268;6.770;2023-09-19T08:04:35;8.47;;;2.83;;
21352;SDS011;10834;52.268;6.770;2023-09-19T08:07:19;10.90;;;2.97;;
21352;SDS011;10834;52.268;6.770;2023-09-19T08:10:04;11.37;;;2.20;;
21352;SDS011;10834;52.268;6.770;2023-09-19T08:12:56;8.37;;;1.87;;
21352;SDS011;10834;52.268;6.770;2023-09-19T08:15:43;10.63;;;2.23;;
21352;SDS011;10834;52.268;6.770;2023-09-19T08:18:28;11.37;;;2.10;;
21352;SDS011;10834;52.268;6.770;2023-09-19T08:21:14;9.87;;;2.57;;
21352;SDS011;10834;52.268;6.770;2023-09-19T08:23:58;7.40;;;2.03;;
21352;SDS011;10834;52.268;6.770;2023-09-19T08:26:42;7.73;;;2.37;;
21352;SDS011;10834;52.268;6.770;2023-09-19T08:29:26;6.33;;;2.20;;
21352;SDS011;10834;52.268;6.770;2023-09-19T08:32:13;15.38;;;2.53;;
21352;SDS011;10834;52.268;6.770;2023-09-19T08:34:58;9.82;;;2.55;;
21352;SDS011;10834;52.268;6.770;2023-09-19T08:37:43;10.38;;;2.25;;
21352;SDS011;10834;52.268;6.770;2023-09-19T08:40:30;6.38;;;2.15;;
21352;SDS011;10834;52.268;6.770;2023-09-19T08:43:17;9.50;;;1.98;;
21352;SDS011;10834;52.268;6.770;2023-09-19T08:48:51;7.10;;;2.15;;
21352;SDS011;10834;52.268;6.770;2023-09-19T08:51:45;10.80;;;2.65;;
21352;SDS011;10834;52.268;6.770;2023-09-19T08:54:31;6.50;;;2.10;;
21352;SDS011;10834;52.268;6.770;2023-09-19T08:57:21;7.80;;;2.20;;
21352;SDS011;10834;52.268;6.770;2023-09-19T09:00:07;9.38;;;2.42;;
21352;SDS011;10834;52.268;6.770;2023-09-19T09:02:56;10.02;;;2.40;;
21352;SDS011;10834;52.268;6.770;2023-09-19T09:05:42;11.38;;;2.47;;
21352;SDS011;10834;52.268;6.770;2023-09-19T09:08:30;11.50;;;2.88;;
21352;SDS011;10834;52.268;6.770;2023-09-19T09:11:15;9.13;;;2.25;;
21352;SDS011;10834;52.268;6.770;2023-09-19T09:14:01;8.55;;;2.25;;
21352;SDS011;10834;52.268;6.770;2023-09-19T09:16:45;8.10;;;2.40;;
21352;SDS011;10834;52.268;6.770;2023-09-19T09:19:32;8.43;;;2.45;;
21352;SDS011;10834;52.268;6.770;2023-09-19T09:22:16;6.03;;;1.95;;
21352;SDS011;10834;52.268;6.770;2023-09-19T09:25:02;7.35;;;2.60;;
21352;SDS011;10834;52.268;6.770;2023-09-19T09:27:57;9.07;;;2.75;;
21352;SDS011;10834;52.268;6.770;2023-09-19T09:30:44;8.65;;;2.50;;
21352;SDS011;10834;52.268;6.770;2023-09-19T09:33:28;9.10;;;2.25;;
21352;SDS011;10834;52.268;6.770;2023-09-19T09:36:13;9.23;;;2.17;;
21352;SDS011;10834;52.268;6.770;2023-09-19T09:38:58;6.05;;;2.13;;
21352;SDS011;10834;52.268;6.770;2023-09-19T09:41:50;10.43;;;2.95;;
21352;SDS011;10834;52.268;6.770;2023-09-19T09:44:34;6.07;;;2.42;;
21352;SDS011;10834;52.268;6.770;2023-09-19T09:47:33;8.55;;;3.08;;
21352;SDS011;10834;52.268;6.770;2023-09-19T09:50:33;10.85;;;2.75;;
21352;SDS011;10834;52.268;6.770;2023-09-19T09:53:39;9.55;;;2.67;;
21352;SDS011;10834;52.268;6.770;2023-09-19T09:56:23;10.43;;;2.78;;
21352;SDS011;10834;52.268;6.770;2023-09-19T09:59:08;5.85;;;2.40;;
21352;SDS011;10834;52.268;6.770;2023-09-19T10:01:53;6.68;;;2.30;;
21352;SDS011;10834;52.268;6.770;2023-09-19T10:04:37;11.05;;;2.70;;
21352;SDS011;10834;52.268;6.770;2023-09-19T10:07:29;8.75;;;2.78;;
21352;SDS011;10834;52.268;6.770;2023-09-19T10:10:33;7.32;;;2.22;;
21352;SDS011;10834;52.268;6.770;2023-09-19T10:13:25;7.72;;;2.35;;
21352;SDS011;10834;52.268;6.770;2023-09-19T10:16:14;8.95;;;3.00;;
21352;SDS011;10834;52.268;6.770;2023-09-19T10:19:03;8.52;;;3.00;;
21352;SDS011;10834;52.268;6.770;2023-09-19T10:21:52;5.68;;;2.25;;
21352;SDS011;10834;52.268;6.770;2023-09-19T10:24:39;10.05;;;2.25;;
21352;SDS011;10834;52.268;6.770;2023-09-19T10:27:25;5.78;;;1.88;;
21352;SDS011;10834;52.268;6.770;2023-09-19T10:30:10;9.73;;;2.20;;
21352;SDS011;10834;52.268;6.770;2023-09-19T10:33:03;11.80;;;2.28;;
21352;SDS011;10834;52.268;6.770;2023-09-19T10:35:49;6.75;;;2.10;;
21352;SDS011;10834;52.268;6.770;2023-09-19T10:38:40;11.20;;;2.15;;
21352;SDS011;10834;52.268;6.770;2023-09-19T10:41:29;8.18;;;2.00;;
21352;SDS011;10834;52.268;6.770;2023-09-19T10:44:18;7.40;;;2.55;;
21352;SDS011;10834;52.268;6.770;2023-09-19T10:47:13;9.52;;;2.92;;
21352;SDS011;10834;52.268;6.770;2023-09-19T10:49:59;9.00;;;2.33;;
21352;SDS011;10834;52.268;6.770;2023-09-19T10:52:45;9.57;;;2.05;;
21352;SDS011;10834;52.268;6.770;2023-09-19T10:55:30;4.93;;;2.03;;
21352;SDS011;10834;52.268;6.770;2023-09-19T10:58:24;7.07;;;2.10;;
21352;SDS011;10834;52.268;6.770;2023-09-19T11:01:12;8.43;;;1.85;;
21352;SDS011;10834;52.268;6.770;2023-09-19T11:07:19;4.38;;;2.00;;
21352;SDS011;10834;52.268;6.770;2023-09-19T11:10:04;9.18;;;1.90;;
21352;SDS011;10834;52.268;6.770;2023-09-19T11:12:48;7.43;;;2.00;;
21352;SDS011;10834;52.268;6.770;2023-09-19T11:27:09;6.10;;;1.67;;
21352;SDS011;10834;52.268;6.770;2023-09-19T11:30:43;9.45;;;2.45;;
21352;SDS011;10834;52.268;6.770;2023-09-19T11:33:27;10.95;;;2.55;;
21352;SDS011;10834;52.268;6.770;2023-09-19T11:36:17;10.43;;;2.78;;
21352;SDS011;10834;52.268;6.770;2023-09-19T11:39:17;14.02;;;2.78;;
21352;SDS011;10834;52.268;6.770;2023-09-19T11:48:29;7.07;;;3.13;;
21352;SDS011;10834;52.268;6.770;2023-09-19T11:51:25;6.15;;;2.17;;
21352;SDS011;10834;52.268;6.770;2023-09-19T11:54:11;5.78;;;1.90;;
21352;SDS011;10834;52.268;6.770;2023-09-19T11:57:01;7.38;;;2.03;;
21352;SDS011;10834;52.268;6.770;2023-09-19T11:59:46;8.13;;;1.92;;
21352;SDS011;10834;52.268;6.770;2023-09-19T12:02:38;13.38;;;2.05;;
21352;SDS011;10834;52.268;6.770;2023-09-19T12:05:31;6.70;;;2.50;;
21352;SDS011;10834;52.268;6.770;2023-09-19T12:08:17;5.65;;;2.33;;
21352;SDS011;10834;52.268;6.770;2023-09-19T12:11:04;7.85;;;1.90;;
21352;SDS011;10834;52.268;6.770;2023-09-19T12:13:52;5.97;;;1.60;;
21352;SDS011;10834;52.268;6.770;2023-09-19T12:16:37;7.05;;;1.50;;
21352;SDS011;10834;52.268;6.770;2023-09-19T12:19:22;9.18;;;2.30;;
21352;SDS011;10834;52.268;6.770;2023-09-19T12:22:07;7.40;;;2.20;;
21352;SDS011;10834;52.268;6.770;2023-09-19T12:24:52;7.25;;;1.83;;
21352;SDS011;10834;52.268;6.770;2023-09-19T12:27:45;8.63;;;3.13;;
21352;SDS011;10834;52.268;6.770;2023-09-19T12:30:30;7.75;;;2.38;;
21352;SDS011;10834;52.268;6.770;2023-09-19T12:33:20;7.35;;;2.28;;
21352;SDS011;10834;52.268;6.770;2023-09-19T12:36:21;5.30;;;1.73;;
21352;SDS011;10834;52.268;6.770;2023-09-19T12:39:24;4.68;;;1.52;;
21352;SDS011;10834;52.268;6.770;2023-09-19T12:42:10;4.97;;;1.92;;
21352;SDS011;10834;52.268;6.770;2023-09-19T12:44:57;6.45;;;2.20;;
21352;SDS011;10834;52.268;6.770;2023-09-19T12:51:19;5.38;;;1.70;;
21352;SDS011;10834;52.268;6.770;2023-09-19T12:54:06;7.53;;;2.00;;
21352;SDS011;10834;52.268;6.770;2023-09-19T12:56:51;5.70;;;1.80;;
21352;SDS011;10834;52.268;6.770;2023-09-19T12:59:37;4.40;;;1.60;;
21352;SDS011;10834;52.268;6.770;2023-09-19T13:02:22;6.05;;;1.45;;
21352;SDS011;10834;52.268;6.770;2023-09-19T13:05:08;10.00;;;2.00;;
21352;SDS011;10834;52.268;6.770;2023-09-19T13:07:53;4.22;;;1.70;;
21352;SDS011;10834;52.268;6.770;2023-09-19T13:10:59;7.57;;;1.55;;
21352;SDS011;10834;52.268;6.770;2023-09-19T13:17:02;7.90;;;1.27;;
21352;SDS011;10834;52.268;6.770;2023-09-19T13:19:50;4.47;;;1.77;;
21352;SDS011;10834;52.268;6.770;2023-09-19T13:22:44;10.02;;;1.60;;
21352;SDS011;10834;52.268;6.770;2023-09-19T13:25:33;8.68;;;1.50;;
21352;SDS011;10834;52.268;6.770;2023-09-19T13:28:17;7.18;;;1.38;;
21352;SDS011;10834;52.268;6.770;2023-09-19T13:31:01;5.25;;;1.55;;
21352;SDS011;10834;52.268;6.770;2023-09-19T13:33:46;5.85;;;1.52;;
21352;SDS011;10834;52.268;6.770;2023-09-19T13:36:32;4.72;;;1.73;;
21352;SDS011;10834;52.268;6.770;2023-09-19T13:39:17;3.72;;;2.42;;
21352;SDS011;10834;52.268;6.770;2023-09-19T13:42:01;5.28;;;1.60;;
21352;SDS011;10834;52.268;6.770;2023-09-19T13:44:47;13.07;;;3.53;;
21352;SDS011;10834;52.268;6.770;2023-09-19T13:47:31;5.25;;;2.35;;
21352;SDS011;10834;52.268;6.770;2023-09-19T13:50:16;4.40;;;1.45;;
21352;SDS011;10834;52.268;6.770;2023-09-19T13:53:07;7.63;;;1.75;;
21352;SDS011;10834;52.268;6.770;2023-09-19T13:55:52;8.45;;;1.38;;
21352;SDS011;10834;52.268;6.770;2023-09-19T13:58:37;4.95;;;1.65;;
21352;SDS011;10834;52.268;6.770;2023-09-19T14:01:21;4.15;;;1.10;;
21352;SDS011;10834;52.268;6.770;2023-09-19T14:04:05;5.50;;;1.77;;
21352;SDS011;10834;52.268;6.770;2023-09-19T14:06:50;7.70;;;1.83;;
21352;SDS011;10834;52.268;6.770;2023-09-19T14:09:34;8.15;;;1.55;;
21352;SDS011;10834;52.268;6.770;2023-09-19T14:12:18;5.65;;;1.40;;
21352;SDS011;10834;52.268;6.770;2023-09-19T14:15:03;2.45;;;0.90;;
21352;SDS011;10834;52.268;6.770;2023-09-19T14:17:48;2.78;;;1.35;;
21352;SDS011;10834;52.268;6.770;2023-09-19T14:20:32;5.97;;;1.50;;
21352;SDS011;10834;52.268;6.770;2023-09-19T14:23:21;6.90;;;1.45;;
21352;SDS011;10834;52.268;6.770;2023-09-19T14:26:07;5.05;;;1.05;;
21352;SDS011;10834;52.268;6.770;2023-09-19T14:28:51;3.13;;;0.95;;
21352;SDS011;10834;52.268;6.770;2023-09-19T14:31:37;5.10;;;1.10;;
21352;SDS011;10834;52.268;6.770;2023-09-19T14:34:22;3.70;;;1.35;;
21352;SDS011;10834;52.268;6.770;2023-09-19T14:37:06;3.20;;;1.10;;
21352;SDS011;10834;52.268;6.770;2023-09-19T14:39:50;4.72;;;1.30;;
21352;SDS011;10834;52.268;6.770;2023-09-19T14:42:35;5.68;;;1.00;;
21352;SDS011;10834;52.268;6.770;2023-09-19T14:45:22;6.07;;;1.02;;
21352;SDS011;10834;52.268;6.770;2023-09-19T14:48:09;3.33;;;1.05;;
21352;SDS011;10834;52.268;6.770;2023-09-19T14:50:53;3.42;;;1.08;;
21352;SDS011;10834;52.268;6.770;2023-09-19T14:53:38;3.47;;;1.10;;
21352;SDS011;10834;52.268;6.770;2023-09-19T14:56:23;3.40;;;1.05;;
21352;SDS011;10834;52.268;6.770;2023-09-19T14:59:09;6.10;;;1.33;;
21352;SDS011;10834;52.268;6.770;2023-09-19T15:01:54;3.63;;;0.77;;
21352;SDS011;10834;52.268;6.770;2023-09-19T15:04:38;6.72;;;1.70;;
21352;SDS011;10834;52.268;6.770;2023-09-19T15:07:24;2.67;;;1.02;;
21352;SDS011;10834;52.268;6.770;2023-09-19T15:10:10;1.65;;;0.70;;
21352;SDS011;10834;52.268;6.770;2023-09-19T15:12:56;3.28;;;1.00;;
21352;SDS011;10834;52.268;6.770;2023-09-19T15:15:41;5.55;;;1.10;;
21352;SDS011;10834;52.268;6.770;2023-09-19T15:18:27;4.80;;;0.88;;
21352;SDS011;10834;52.268;6.770;2023-09-19T15:21:14;3.58;;;1.02;;
21352;SDS011;10834;52.268;6.770;2023-09-19T15:23:59;3.90;;;1.23;;
21352;SDS011;10834;52.268;6.770;2023-09-19T15:26:42;4.47;;;1.27;;
21352;SDS011;10834;52.268;6.770;2023-09-19T15:29:28;2.75;;;0.70;;
21352;SDS011;10834;52.268;6.770;2023-09-19T15:32:12;1.67;;;0.80;;
21352;SDS011;10834;52.268;6.770;2023-09-19T15:34:56;3.05;;;0.80;;
21352;SDS011;10834;52.268;6.770;2023-09-19T15:37:41;3.78;;;1.20;;
21352;SDS011;10834;52.268;6.770;2023-09-19T15:40:26;3.40;;;1.10;;
21352;SDS011;10834;52.268;6.770;2023-09-19T15:43:10;2.22;;;0.80;;
21352;SDS011;10834;52.268;6.770;2023-09-19T15:45:55;4.53;;;0.88;;
21352;SDS011;10834;52.268;6.770;2023-09-19T15:48:39;2.10;;;0.98;;
21352;SDS011;10834;52.268;6.770;2023-09-19T15:51:24;3.78;;;1.50;;
21352;SDS011;10834;52.268;6.770;2023-09-19T15:54:10;4.70;;;0.90;;
21352;SDS011;10834;52.268;6.770;2023-09-19T15:56:59;2.03;;;0.80;;
21352;SDS011;10834;52.268;6.770;2023-09-19T15:59:43;3.38;;;0.77;;
21352;SDS011;10834;52.268;6.770;2023-09-19T16:02:30;4.10;;;0.90;;
21352;SDS011;10834;52.268;6.770;2023-09-19T16:05:14;3.00;;;1.30;;
21352;SDS011;10834;52.268;6.770;2023-09-19T16:07:59;3.90;;;1.10;;
21352;SDS011;10834;52.268;6.770;2023-09-19T16:10:47;6.68;;;0.98;;
21352;SDS011;10834;52.268;6.770;2023-09-19T16:13:32;6.55;;;1.30;;
21352;SDS011;10834;52.268;6.770;2023-09-19T16:16:17;5.53;;;0.93;;
21352;SDS011;10834;52.268;6.770;2023-09-19T16:19:04;1.75;;;0.70;;
21352;SDS011;10834;52.268;6.770;2023-09-19T16:21:50;5.35;;;1.48;;
21352;SDS011;10834;52.268;6.770;2023-09-19T16:24:34;5.10;;;1.40;;
21352;SDS011;10834;52.268;6.770;2023-09-19T16:27:19;3.08;;;1.58;;
21352;SDS011;10834;52.268;6.770;2023-09-19T16:30:04;4.88;;;0.90;;
21352;SDS011;10834;52.268;6.770;2023-09-19T16:32:52;2.17;;;0.80;;
21352;SDS011;10834;52.268;6.770;2023-09-19T16:35:37;4.20;;;1.35;;
21352;SDS011;10834;52.268;6.770;2023-09-19T16:38:24;2.58;;;0.73;;
21352;SDS011;10834;52.268;6.770;2023-09-19T16:41:09;4.18;;;0.70;;
21352;SDS011;10834;52.268;6.770;2023-09-19T16:43:56;3.35;;;0.98;;
21352;SDS011;10834;52.268;6.770;2023-09-19T16:46:41;2.92;;;1.15;;
21352;SDS011;10834;52.268;6.770;2023-09-19T16:49:27;4.68;;;1.10;;
21352;SDS011;10834;52.268;6.770;2023-09-19T16:52:12;2.53;;;0.90;;
21352;SDS011;10834;52.268;6.770;2023-09-19T16:54:56;3.72;;;0.73;;
21352;SDS011;10834;52.268;6.770;2023-09-19T16:57:40;6.32;;;1.90;;
21352;SDS011;10834;52.268;6.770;2023-09-19T17:00:26;6.28;;;1.25;;
21352;SDS011;10834;52.268;6.770;2023-09-19T17:03:11;4.50;;;1.23;;
21352;SDS011;10834;52.268;6.770;2023-09-19T17:05:56;4.00;;;1.20;;
21352;SDS011;10834;52.268;6.770;2023-09-19T17:08:42;2.67;;;1.10;;
21352;SDS011;10834;52.268;6.770;2023-09-19T17:11:28;6.68;;;0.98;;
21352;SDS011;10834;52.268;6.770;2023-09-19T17:14:12;4.20;;;1.00;;
21352;SDS011;10834;52.268;6.770;2023-09-19T17:16:56;4.25;;;1.27;;
21352;SDS011;10834;52.268;6.770;2023-09-19T17:19:40;3.47;;;0.90;;
21352;SDS011;10834;52.268;6.770;2023-09-19T17:22:24;4.80;;;0.90;;